sensor_id;sensor_type;location;lat;lon;timestamp;P1;durP1;ratioP1;P2;durP2;ratioP2
77984;SDS011;67177;47.240;-1.546;2023-05-10T06:29:36;7.35;;;1.88;;
77984;SDS011;67177;47.240;-1.546;2023-05-10T06:32:02;7.72;;;2.30;;
77984;SDS011;67177;47.240;-1.546;2023-05-10T06:34:28;9.10;;;1.80;;
77984;SDS011;67177;47.240;-1.546;2023-05-10T06:36:53;7.63;;;1.45;;
77984;SDS011;67177;47.240;-1.546;2023-05-10T06:39:19;6.53;;;1.40;;
77984;SDS011;67177;47.240;-1.546;2023-05-10T06:41:45;7.28;;;1.70;;
77984;SDS011;67177;47.240;-1.546;2023-05-10T06:44:10;8.43;;;1.50;;
77984;SDS011;67177;47.240;-1.546;2023-05-10T06:46:36;8.10;;;1.60;;
77984;SDS011;67177;47.240;-1.546;2023-05-10T06:49:02;8.83;;;1.70;;
77984;SDS011;67177;47.240;-1.546;2023-05-10T06:51:28;8.40;;;1.40;;
77984;SDS011;67177;47.240;-1.546;2023-05-10T06:53:53;9.13;;;1.70;;
77984;SDS011;67177;47.240;-1.546;2023-05-10T06:56:19;7.78;;;1.60;;
77984;SDS011;67177;47.240;-1.546;2023-05-10T06:58:46;6.00;;;1.37;;
77984;SDS011;67177;47.240;-1.546;2023-05-10T07:01:15;6.75;;;1.35;;
77984;SDS011;67177;47.240;-1.546;2023-05-10T07:03:41;9.13;;;1.60;;
77984;SDS011;67177;47.240;-1.546;2023-05-10T07:06:06;6.40;;;1.10;;
77984;SDS011;67177;47.240;-1.546;2023-05-10T07:08:35;8.85;;;1.48;;
77984;SDS011;67177;47.240;-1.546;2023-05-10T07:11:04;9.63;;;1.63;;
77984;SDS011;67177;47.240;-1.546;2023-05-10T07:13:35;8.53;;;1.73;;
77984;SDS011;67177;47.240;-1.546;2023-05-10T07:16:01;7.35;;;1.75;;
77984;SDS011;67177;47.240;-1.546;2023-05-10T07:18:27;8.63;;;1.58;;
77984;SDS011;67177;47.240;-1.546;2023-05-10T07:20:53;8.18;;;1.45;;
77984;SDS011;67177;47.240;-1.546;2023-05-10T07:23:19;7.10;;;1.60;;
77984;SDS011;67177;47.240;-1.546;2023-05-10T07:25:48;7.55;;;1.70;;
77984;SDS011;67177;47.240;-1.546;2023-05-10T07:28:16;5.63;;;1.43;;
77984;SDS011;67177;47.240;-1.546;2023-05-10T07:30:42;8.00;;;1.55;;
77984;SDS011;67177;47.240;-1.546;2023-05-10T07:33:08;11.33;;;2.00;;
77984;SDS011;67177;47.240;-1.546;2023-05-10T07:35:35;8.90;;;1.63;;
77984;SDS011;67177;47.240;-1.546;2023-05-10T07:38:00;13.23;;;2.35;;
77984;SDS011;67177;47.240;-1.546;2023-05-10T07:40:26;13.82;;;2.17;;
77984;SDS011;67177;47.240;-1.546;2023-05-10T07:42:52;11.20;;;1.97;;
77984;SDS011;67177;47.240;-1.546;2023-05-10T07:45:18;9.07;;;1.55;;
77984;SDS011;67177;47.240;-1.546;2023-05-10T07:47:44;9.07;;;1.90;;
77984;SDS011;67177;47.240;-1.546;2023-05-10T07:50:10;10.03;;;1.90;;
77984;SDS011;67177;47.240;-1.546;2023-05-10T07:52:36;7.37;;;1.63;;
77984;SDS011;67177;47.240;-1.546;2023-05-10T07:55:01;7.50;;;1.50;;
77984;SDS011;67177;47.240;-1.546;2023-05-10T07:57:27;7.50;;;1.40;;
77984;SDS011;67177;47.240;-1.546;2023-05-10T07:59:52;7.78;;;1.60;;
77984;SDS011;67177;47.240;-1.546;2023-05-10T08:02:18;7.50;;;1.50;;
77984;SDS011;67177;47.240;-1.546;2023-05-10T08:04:44;7.57;;;1.60;;
77984;SDS011;67177;47.240;-1.546;2023-05-10T08:07:10;6.57;;;1.40;;
77984;SDS011;67177;47.240;-1.546;2023-05-10T08:09:36;6.15;;;1.38;;
77984;SDS011;67177;47.240;-1.546;2023-05-10T08:12:02;9.73;;;1.77;;
77984;SDS011;67177;47.240;-1.546;2023-05-10T08:14:28;7.87;;;2.13;;
77984;SDS011;67177;47.240;-1.546;2023-05-10T08:16:54;6.15;;;1.58;;
77984;SDS011;67177;47.240;-1.546;2023-05-10T08:19:20;9.50;;;1.98;;
77984;SDS011;67177;47.240;-1.546;2023-05-10T08:21:46;6.85;;;1.70;;
77984;SDS011;67177;47.240;-1.546;2023-05-10T08:24:12;6.57;;;1.60;;
77984;SDS011;67177;47.240;-1.546;2023-05-10T08:26:38;7.13;;;1.60;;
77984;SDS011;67177;47.240;-1.546;2023-05-10T08:29:03;6.73;;;1.47;;
77984;SDS011;67177;47.240;-1.546;2023-05-10T08:31:29;10.63;;;1.85;;
77984;SDS011;67177;47.240;-1.546;2023-05-10T08:33:55;7.57;;;1.63;;
77984;SDS011;67177;47.240;-1.546;2023-05-10T08:36:21;7.47;;;1.70;;
77984;SDS011;67177;47.240;-1.546;2023-05-10T08:38:50;7.63;;;1.80;;
77984;SDS011;67177;47.240;-1.546;2023-05-10T08:41:19;7.18;;;1.88;;
77984;SDS011;67177;47.240;-1.546;2023-05-10T08:43:46;9.00;;;1.70;;
77984;SDS011;67177;47.240;-1.546;2023-05-10T08:46:16;7.35;;;1.67;;
77984;SDS011;67177;47.240;-1.546;2023-05-10T08:48:44;7.15;;;1.55;;
77984;SDS011;67177;47.240;-1.546;2023-05-10T08:51:14;6.72;;;1.55;;
77984;SDS011;67177;47.240;-1.546;2023-05-10T08:53:44;8.55;;;2.00;;
77984;SDS011;67177;47.240;-1.546;2023-05-10T08:56:10;10.10;;;1.60;;
77984;SDS011;67177;47.240;-1.546;2023-05-10T08:58:37;8.27;;;1.75;;
77984;SDS011;67177;47.240;-1.546;2023-05-10T09:01:03;11.07;;;1.90;;
77984;SDS011;67177;47.240;-1.546;2023-05-10T09:03:30;6.80;;;1.67;;
77984;SDS011;67177;47.240;-1.546;2023-05-10T09:05:57;7.97;;;1.65;;
77984;SDS011;67177;47.240;-1.546;2023-05-10T09:08:24;6.63;;;1.38;;
77984;SDS011;67177;47.240;-1.546;2023-05-10T09:10:54;8.25;;;2.00;;
77984;SDS011;67177;47.240;-1.546;2023-05-10T09:13:21;7.25;;;1.60;;
77984;SDS011;67177;47.240;-1.546;2023-05-10T09:15:48;7.53;;;1.47;;
77984;SDS011;67177;47.240;-1.546;2023-05-10T09:18:14;8.10;;;1.70;;
77984;SDS011;67177;47.240;-1.546;2023-05-10T09:20:39;6.75;;;1.50;;
77984;SDS011;67177;47.240;-1.546;2023-05-10T09:23:05;6.03;;;1.30;;
77984;SDS011;67177;47.240;-1.546;2023-05-10T09:25:31;5.50;;;1.40;;
77984;SDS011;67177;47.240;-1.546;2023-05-10T09:28:00;6.70;;;1.27;;
77984;SDS011;67177;47.240;-1.546;2023-05-10T09:30:26;5.97;;;1.30;;
77984;SDS011;67177;47.240;-1.546;2023-05-10T09:32:56;6.70;;;1.40;;
77984;SDS011;67177;47.240;-1.546;2023-05-10T09:35:24;6.85;;;1.52;;
77984;SDS011;67177;47.240;-1.546;2023-05-10T09:37:51;8.00;;;1.30;;
77984;SDS011;67177;47.240;-1.546;2023-05-10T09:40:20;6.60;;;1.30;;
77984;SDS011;67177;47.240;-1.546;2023-05-10T09:42:57;5.73;;;1.40;;
77984;SDS011;67177;47.240;-1.546;2023-05-10T09:45:28;5.93;;;1.30;;
77984;SDS011;67177;47.240;-1.546;2023-05-10T09:47:55;7.10;;;1.40;;
77984;SDS011;67177;47.240;-1.546;2023-05-10T09:50:21;6.40;;;1.40;;
77984;SDS011;67177;47.240;-1.546;2023-05-10T09:55:23;6.47;;;1.43;;
77984;SDS011;67177;47.240;-1.546;2023-05-10T09:58:01;7.78;;;1.73;;
77984;SDS011;67177;47.240;-1.546;2023-05-10T10:00:27;6.72;;;1.40;;
77984;SDS011;67177;47.240;-1.546;2023-05-10T10:02:57;7.95;;;1.60;;
77984;SDS011;67177;47.240;-1.546;2023-05-10T10:07:56;7.10;;;1.60;;
77984;SDS011;67177;47.240;-1.546;2023-05-10T10:10:24;7.10;;;1.30;;
77984;SDS011;67177;47.240;-1.546;2023-05-10T10:12:50;8.20;;;1.90;;
77984;SDS011;67177;47.240;-1.546;2023-05-10T10:15:16;7.93;;;1.60;;
77984;SDS011;67177;47.240;-1.546;2023-05-10T10:17:42;7.17;;;1.80;;
77984;SDS011;67177;47.240;-1.546;2023-05-10T10:20:09;7.45;;;1.50;;
77984;SDS011;67177;47.240;-1.546;2023-05-10T10:22:36;7.57;;;1.45;;
77984;SDS011;67177;47.240;-1.546;2023-05-10T10:25:02;7.55;;;1.70;;
77984;SDS011;67177;47.240;-1.546;2023-05-10T10:27:35;8.13;;;2.15;;
77984;SDS011;67177;47.240;-1.546;2023-05-10T10:30:50;9.37;;;1.90;;
77984;SDS011;67177;47.240;-1.546;2023-05-10T10:36:05;7.05;;;1.70;;
77984;SDS011;67177;47.240;-1.546;2023-05-10T10:38:54;6.10;;;1.35;;
77984;SDS011;67177;47.240;-1.546;2023-05-10T10:41:34;8.55;;;1.70;;
77984;SDS011;67177;47.240;-1.546;2023-05-10T10:49:42;6.95;;;1.40;;
77984;SDS011;67177;47.240;-1.546;2023-05-10T10:52:31;7.60;;;1.67;;
77984;SDS011;67177;47.240;-1.546;2023-05-10T10:57:31;6.90;;;1.67;;
77984;SDS011;67177;47.240;-1.546;2023-05-10T11:00:25;8.27;;;1.77;;
77984;SDS011;67177;47.240;-1.546;2023-05-10T11:13:28;6.70;;;1.65;;
77984;SDS011;67177;47.240;-1.546;2023-05-10T11:15:55;8.35;;;1.90;;
77984;SDS011;67177;47.240;-1.546;2023-05-10T11:18:29;6.70;;;1.30;;
77984;SDS011;67177;47.240;-1.546;2023-05-10T11:20:59;8.02;;;1.60;;
77984;SDS011;67177;47.240;-1.546;2023-05-10T11:23:47;7.90;;;1.83;;
77984;SDS011;67177;47.240;-1.546;2023-05-10T11:26:15;9.15;;;1.88;;
77984;SDS011;67177;47.240;-1.546;2023-05-10T11:28:45;7.93;;;1.70;;
77984;SDS011;67177;47.240;-1.546;2023-05-10T11:31:15;7.10;;;1.42;;
77984;SDS011;67177;47.240;-1.546;2023-05-10T11:33:48;7.68;;;1.35;;
77984;SDS011;67177;47.240;-1.546;2023-05-10T11:36:20;8.87;;;1.83;;
77984;SDS011;67177;47.240;-1.546;2023-05-10T11:38:48;9.40;;;1.50;;
77984;SDS011;67177;47.240;-1.546;2023-05-10T11:41:15;8.93;;;1.60;;
77984;SDS011;67177;47.240;-1.546;2023-05-10T11:43:42;6.45;;;1.33;;
77984;SDS011;67177;47.240;-1.546;2023-05-10T11:46:11;6.70;;;1.83;;
77984;SDS011;67177;47.240;-1.546;2023-05-10T11:48:41;6.43;;;1.30;;
77984;SDS011;67177;47.240;-1.546;2023-05-10T11:51:07;7.18;;;1.70;;
77984;SDS011;67177;47.240;-1.546;2023-05-10T11:53:34;6.70;;;1.60;;
77984;SDS011;67177;47.240;-1.546;2023-05-10T11:56:17;8.20;;;1.95;;
77984;SDS011;67177;47.240;-1.546;2023-05-10T11:58:43;7.97;;;1.63;;
77984;SDS011;67177;47.240;-1.546;2023-05-10T12:01:09;7.68;;;1.48;;
77984;SDS011;67177;47.240;-1.546;2023-05-10T12:03:35;7.75;;;1.70;;
77984;SDS011;67177;47.240;-1.546;2023-05-10T12:06:02;8.15;;;1.42;;
77984;SDS011;67177;47.240;-1.546;2023-05-10T12:08:29;6.70;;;1.30;;
77984;SDS011;67177;47.240;-1.546;2023-05-10T12:11:08;5.70;;;1.20;;
77984;SDS011;67177;47.240;-1.546;2023-05-10T12:13:37;4.53;;;1.00;;
77984;SDS011;67177;47.240;-1.546;2023-05-10T12:16:21;4.53;;;1.00;;
77984;SDS011;67177;47.240;-1.546;2023-05-10T12:18:51;3.88;;;0.80;;
77984;SDS011;67177;47.240;-1.546;2023-05-10T12:21:23;3.23;;;0.80;;
77984;SDS011;67177;47.240;-1.546;2023-05-10T12:23:50;2.72;;;0.80;;
77984;SDS011;67177;47.240;-1.546;2023-05-10T12:26:16;3.85;;;0.80;;
77984;SDS011;67177;47.240;-1.546;2023-05-10T12:28:42;2.42;;;0.70;;
77984;SDS011;67177;47.240;-1.546;2023-05-10T12:31:08;6.13;;;0.90;;
77984;SDS011;67177;47.240;-1.546;2023-05-10T12:33:37;4.22;;;0.70;;
77984;SDS011;67177;47.240;-1.546;2023-05-10T12:36:12;3.47;;;0.80;;
77984;SDS011;67177;47.240;-1.546;2023-05-10T12:38:40;4.97;;;0.90;;
77984;SDS011;67177;47.240;-1.546;2023-05-10T12:41:08;4.88;;;0.98;;
77984;SDS011;67177;47.240;-1.546;2023-05-10T12:43:38;4.60;;;0.70;;
77984;SDS011;67177;47.240;-1.546;2023-05-10T12:46:12;2.53;;;0.60;;
77984;SDS011;67177;47.240;-1.546;2023-05-10T12:48:39;5.23;;;0.80;;
77984;SDS011;67177;47.240;-1.546;2023-05-10T12:51:06;5.30;;;1.10;;
77984;SDS011;67177;47.240;-1.546;2023-05-10T12:53:37;5.93;;;1.02;;
77984;SDS011;67177;47.240;-1.546;2023-05-10T12:56:06;4.50;;;0.90;;
77984;SDS011;67177;47.240;-1.546;2023-05-10T12:58:32;5.97;;;1.15;;
77984;SDS011;67177;47.240;-1.546;2023-05-10T13:00:58;5.57;;;1.10;;
77984;SDS011;67177;47.240;-1.546;2023-05-10T13:03:24;5.53;;;1.10;;
77984;SDS011;67177;47.240;-1.546;2023-05-10T13:05:50;5.47;;;1.10;;
77984;SDS011;67177;47.240;-1.546;2023-05-10T13:08:16;4.93;;;1.20;;
77984;SDS011;67177;47.240;-1.546;2023-05-10T13:10:41;4.90;;;0.80;;
77984;SDS011;67177;47.240;-1.546;2023-05-10T13:13:07;5.38;;;1.00;;
77984;SDS011;67177;47.240;-1.546;2023-05-10T13:15:33;4.63;;;1.05;;
77984;SDS011;67177;47.240;-1.546;2023-05-10T13:17:59;6.23;;;1.00;;
77984;SDS011;67177;47.240;-1.546;2023-05-10T13:20:25;4.88;;;1.00;;
77984;SDS011;67177;47.240;-1.546;2023-05-10T13:22:51;4.70;;;1.10;;
77984;SDS011;67177;47.240;-1.546;2023-05-10T13:25:17;4.53;;;1.00;;
77984;SDS011;67177;47.240;-1.546;2023-05-10T13:27:43;6.68;;;1.40;;
77984;SDS011;67177;47.240;-1.546;2023-05-10T13:30:09;6.73;;;1.17;;
77984;SDS011;67177;47.240;-1.546;2023-05-10T13:32:36;8.40;;;1.25;;
77984;SDS011;67177;47.240;-1.546;2023-05-10T13:35:02;6.45;;;1.35;;
77984;SDS011;67177;47.240;-1.546;2023-05-10T13:37:29;5.18;;;1.10;;
77984;SDS011;67177;47.240;-1.546;2023-05-10T13:39:55;7.07;;;1.50;;
77984;SDS011;67177;47.240;-1.546;2023-05-10T13:42:22;5.75;;;1.40;;
77984;SDS011;67177;47.240;-1.546;2023-05-10T13:44:48;5.93;;;1.13;;
77984;SDS011;67177;47.240;-1.546;2023-05-10T13:47:14;6.90;;;1.40;;
77984;SDS011;67177;47.240;-1.546;2023-05-10T13:49:40;7.60;;;1.30;;
77984;SDS011;67177;47.240;-1.546;2023-05-10T13:52:06;5.43;;;1.20;;
77984;SDS011;67177;47.240;-1.546;2023-05-10T13:54:41;6.18;;;1.10;;
77984;SDS011;67177;47.240;-1.546;2023-05-10T13:57:07;4.97;;;1.00;;
77984;SDS011;67177;47.240;-1.546;2023-05-10T13:59:33;5.35;;;1.00;;
77984;SDS011;67177;47.240;-1.546;2023-05-10T14:01:59;6.60;;;1.27;;
77984;SDS011;67177;47.240;-1.546;2023-05-10T14:04:27;5.75;;;1.20;;
77984;SDS011;67177;47.240;-1.546;2023-05-10T14:06:53;3.05;;;0.70;;
77984;SDS011;67177;47.240;-1.546;2023-05-10T14:09:19;2.93;;;0.70;;
77984;SDS011;67177;47.240;-1.546;2023-05-10T14:11:45;3.63;;;0.70;;
77984;SDS011;67177;47.240;-1.546;2023-05-10T14:14:11;2.80;;;0.70;;
77984;SDS011;67177;47.240;-1.546;2023-05-10T14:16:38;3.80;;;0.85;;
77984;SDS011;67177;47.240;-1.546;2023-05-10T14:19:06;2.07;;;0.60;;
77984;SDS011;67177;47.240;-1.546;2023-05-10T14:21:32;2.65;;;0.60;;
77984;SDS011;67177;47.240;-1.546;2023-05-10T14:23:58;1.90;;;0.60;;
77984;SDS011;67177;47.240;-1.546;2023-05-10T14:26:24;2.10;;;0.60;;
77984;SDS011;67177;47.240;-1.546;2023-05-10T14:28:50;1.63;;;0.50;;
77984;SDS011;67177;47.240;-1.546;2023-05-10T14:31:15;1.47;;;0.50;;
77984;SDS011;67177;47.240;-1.546;2023-05-10T14:33:41;2.00;;;0.50;;
77984;SDS011;67177;47.240;-1.546;2023-05-10T14:36:07;2.15;;;0.60;;
77984;SDS011;67177;47.240;-1.546;2023-05-10T14:38:33;2.27;;;0.50;;
77984;SDS011;67177;47.240;-1.546;2023-05-10T14:40:59;3.38;;;0.73;;
77984;SDS011;67177;47.240;-1.546;2023-05-10T14:43:25;2.77;;;0.70;;
77984;SDS011;67177;47.240;-1.546;2023-05-10T14:45:52;2.08;;;0.60;;
77984;SDS011;67177;47.240;-1.546;2023-05-10T14:48:18;3.50;;;0.80;;
77984;SDS011;67177;47.240;-1.546;2023-05-10T14:50:44;2.53;;;0.73;;
77984;SDS011;67177;47.240;-1.546;2023-05-10T14:53:11;2.38;;;0.70;;
77984;SDS011;67177;47.240;-1.546;2023-05-10T14:55:36;2.92;;;0.85;;
77984;SDS011;67177;47.240;-1.546;2023-05-10T14:58:03;3.38;;;0.70;;
77984;SDS011;67177;47.240;-1.546;2023-05-10T15:00:29;4.70;;;1.00;;
77984;SDS011;67177;47.240;-1.546;2023-05-10T15:02:55;5.00;;;1.13;;
77984;SDS011;67177;47.240;-1.546;2023-05-10T15:05:21;4.78;;;1.05;;
77984;SDS011;67177;47.240;-1.546;2023-05-10T15:07:46;3.80;;;0.85;;
77984;SDS011;67177;47.240;-1.546;2023-05-10T15:10:12;5.00;;;1.23;;
77984;SDS011;67177;47.240;-1.546;2023-05-10T15:12:38;6.28;;;1.25;;
77984;SDS011;67177;47.240;-1.546;2023-05-10T15:15:05;6.07;;;1.50;;
77984;SDS011;67177;47.240;-1.546;2023-05-10T15:17:31;6.97;;;1.40;;
77984;SDS011;67177;47.240;-1.546;2023-05-10T15:19:57;7.90;;;1.60;;
77984;SDS011;67177;47.240;-1.546;2023-05-10T15:22:22;5.28;;;1.10;;
77984;SDS011;67177;47.240;-1.546;2023-05-10T15:24:48;5.33;;;1.20;;
77984;SDS011;67177;47.240;-1.546;2023-05-10T15:27:14;5.90;;;1.60;;
77984;SDS011;67177;47.240;-1.546;2023-05-10T15:29:40;5.35;;;1.20;;
77984;SDS011;67177;47.240;-1.546;2023-05-10T15:32:06;6.63;;;1.40;;
77984;SDS011;67177;47.240;-1.546;2023-05-10T15:34:32;7.63;;;1.52;;
77984;SDS011;67177;47.240;-1.546;2023-05-10T15:36:58;6.60;;;1.37;;
77984;SDS011;67177;47.240;-1.546;2023-05-10T15:39:23;7.38;;;1.42;;
77984;SDS011;67177;47.240;-1.546;2023-05-10T15:41:49;6.30;;;1.50;;
77984;SDS011;67177;47.240;-1.546;2023-05-10T15:44:14;7.38;;;1.30;;
77984;SDS011;67177;47.240;-1.546;2023-05-10T15:46:40;7.07;;;1.63;;
77984;SDS011;67177;47.240;-1.546;2023-05-10T15:49:06;10.63;;;1.95;;
77984;SDS011;67177;47.240;-1.546;2023-05-10T15:51:31;6.63;;;1.53;;
77984;SDS011;67177;47.240;-1.546;2023-05-10T15:53:57;5.60;;;1.20;;
77984;SDS011;67177;47.240;-1.546;2023-05-10T15:56:23;9.53;;;1.73;;
77984;SDS011;67177;47.240;-1.546;2023-05-10T15:58:49;7.18;;;1.40;;
77984;SDS011;67177;47.240;-1.546;2023-05-10T16:01:15;6.32;;;1.15;;
77984;SDS011;67177;47.240;-1.546;2023-05-10T16:03:41;7.23;;;1.60;;
77984;SDS011;67177;47.240;-1.546;2023-05-10T16:06:07;7.28;;;1.25;;
77984;SDS011;67177;47.240;-1.546;2023-05-10T16:08:32;4.67;;;1.07;;
77984;SDS011;67177;47.240;-1.546;2023-05-10T16:10:59;4.78;;;1.20;;
77984;SDS011;67177;47.240;-1.546;2023-05-10T16:13:24;4.88;;;0.90;;
77984;SDS011;67177;47.240;-1.546;2023-05-10T16:15:50;4.30;;;1.00;;
77984;SDS011;67177;47.240;-1.546;2023-05-10T16:18:17;3.60;;;0.70;;
77984;SDS011;67177;47.240;-1.546;2023-05-10T16:20:43;3.53;;;0.80;;
77984;SDS011;67177;47.240;-1.546;2023-05-10T16:23:08;3.13;;;0.63;;
77984;SDS011;67177;47.240;-1.546;2023-05-10T16:25:35;2.90;;;0.60;;
77984;SDS011;67177;47.240;-1.546;2023-05-10T16:28:00;2.30;;;0.60;;
77984;SDS011;67177;47.240;-1.546;2023-05-10T16:30:26;3.30;;;0.70;;
77984;SDS011;67177;47.240;-1.546;2023-05-10T16:32:54;2.47;;;0.70;;
77984;SDS011;67177;47.240;-1.546;2023-05-10T16:35:23;2.47;;;0.63;;
77984;SDS011;67177;47.240;-1.546;2023-05-10T16:37:50;2.13;;;0.60;;
77984;SDS011;67177;47.240;-1.546;2023-05-10T16:40:15;2.67;;;0.60;;
77984;SDS011;67177;47.240;-1.546;2023-05-10T16:42:41;2.10;;;0.55;;
77984;SDS011;67177;47.240;-1.546;2023-05-10T16:45:07;2.03;;;0.60;;
77984;SDS011;67177;47.240;-1.546;2023-05-10T16:47:33;3.03;;;0.50;;
77984;SDS011;67177;47.240;-1.546;2023-05-10T16:50:00;2.93;;;0.50;;
77984;SDS011;67177;47.240;-1.546;2023-05-10T16:52:27;2.22;;;0.60;;
77984;SDS011;67177;47.240;-1.546;2023-05-10T16:54:53;2.38;;;0.60;;
77984;SDS011;67177;47.240;-1.546;2023-05-10T16:57:19;1.90;;;0.60;;
77984;SDS011;67177;47.240;-1.546;2023-05-10T16:59:45;3.00;;;0.75;;
77984;SDS011;67177;47.240;-1.546;2023-05-10T17:02:11;4.00;;;1.10;;
77984;SDS011;67177;47.240;-1.546;2023-05-10T17:04:37;3.00;;;0.90;;
77984;SDS011;67177;47.240;-1.546;2023-05-10T17:07:02;4.13;;;1.00;;
77984;SDS011;67177;47.240;-1.546;2023-05-10T17:09:28;3.93;;;1.00;;
77984;SDS011;67177;47.240;-1.546;2023-05-10T17:11:54;3.60;;;0.93;;
77984;SDS011;67177;47.240;-1.546;2023-05-10T17:14:20;3.25;;;0.90;;
77984;SDS011;67177;47.240;-1.546;2023-05-10T17:16:46;5.40;;;0.90;;
77984;SDS011;67177;47.240;-1.546;2023-05-10T17:19:16;5.57;;;1.30;;
77984;SDS011;67177;47.240;-1.546;2023-05-10T17:21:42;4.95;;;1.20;;
77984;SDS011;67177;47.240;-1.546;2023-05-10T17:24:08;4.57;;;0.90;;
77984;SDS011;67177;47.240;-1.546;2023-05-10T17:26:33;5.68;;;1.00;;
77984;SDS011;67177;47.240;-1.546;2023-05-10T17:28:59;5.10;;;1.23;;
77984;SDS011;67177;47.240;-1.546;2023-05-10T17:31:25;5.65;;;1.00;;
77984;SDS011;67177;47.240;-1.546;2023-05-10T17:33:51;4.15;;;1.08;;
77984;SDS011;67177;47.240;-1.546;2023-05-10T17:36:17;5.18;;;1.10;;
77984;SDS011;67177;47.240;-1.546;2023-05-10T17:38:43;4.82;;;1.08;;
77984;SDS011;67177;47.240;-1.546;2023-05-10T17:41:09;4.87;;;1.00;;
77984;SDS011;67177;47.240;-1.546;2023-05-10T17:43:35;4.47;;;1.00;;
77984;SDS011;67177;47.240;-1.546;2023-05-10T17:46:00;5.90;;;1.10;;
77984;SDS011;67177;47.240;-1.546;2023-05-10T17:48:26;5.40;;;1.20;;
77984;SDS011;67177;47.240;-1.546;2023-05-10T17:50:52;4.57;;;0.90;;
77984;SDS011;67177;47.240;-1.546;2023-05-10T17:53:17;6.13;;;1.30;;
77984;SDS011;67177;47.240;-1.546;2023-05-10T17:55:43;4.17;;;0.87;;
77984;SDS011;67177;47.240;-1.546;2023-05-10T17:58:09;4.57;;;1.02;;
77984;SDS011;67177;47.240;-1.546;2023-05-10T18:00:36;4.68;;;1.00;;
77984;SDS011;67177;47.240;-1.546;2023-05-10T18:03:02;5.05;;;1.00;;
77984;SDS011;67177;47.240;-1.546;2023-05-10T18:05:29;4.22;;;0.80;;
77984;SDS011;67177;47.240;-1.546;2023-05-10T18:07:55;4.97;;;1.00;;
77984;SDS011;67177;47.240;-1.546;2023-05-10T18:10:21;4.07;;;0.90;;
77984;SDS011;67177;47.240;-1.546;2023-05-10T18:12:48;3.97;;;1.02;;
77984;SDS011;67177;47.240;-1.546;2023-05-10T18:15:14;6.75;;;1.10;;
77984;SDS011;67177;47.240;-1.546;2023-05-10T18:17:40;6.45;;;1.20;;
77984;SDS011;67177;47.240;-1.546;2023-05-10T18:20:07;6.47;;;1.20;;
77984;SDS011;67177;47.240;-1.546;2023-05-10T18:22:33;4.82;;;1.15;;
77984;SDS011;67177;47.240;-1.546;2023-05-10T18:24:59;3.90;;;0.90;;
77984;SDS011;67177;47.240;-1.546;2023-05-10T18:27:25;4.50;;;1.00;;
77984;SDS011;67177;47.240;-1.546;2023-05-10T18:29:50;4.72;;;0.80;;
77984;SDS011;67177;47.240;-1.546;2023-05-10T18:32:16;3.20;;;0.83;;
77984;SDS011;67177;47.240;-1.546;2023-05-10T18:34:42;3.50;;;0.70;;
77984;SDS011;67177;47.240;-1.546;2023-05-10T18:37:07;4.30;;;1.20;;
77984;SDS011;67177;47.240;-1.546;2023-05-10T18:39:37;4.60;;;1.00;;
77984;SDS011;67177;47.240;-1.546;2023-05-10T18:42:03;3.75;;;0.90;;
77984;SDS011;67177;47.240;-1.546;2023-05-10T18:44:29;4.45;;;1.05;;
77984;SDS011;67177;47.240;-1.546;2023-05-10T18:46:55;4.20;;;1.00;;
77984;SDS011;67177;47.240;-1.546;2023-05-10T18:49:23;5.90;;;1.25;;
77984;SDS011;67177;47.240;-1.546;2023-05-10T18:51:49;4.00;;;1.00;;
77984;SDS011;67177;47.240;-1.546;2023-05-10T18:54:16;4.38;;;1.02;;
77984;SDS011;67177;47.240;-1.546;2023-05-10T18:56:42;3.63;;;0.80;;
77984;SDS011;67177;47.240;-1.546;2023-05-10T18:59:12;3.43;;;0.80;;
77984;SDS011;67177;47.240;-1.546;2023-05-10T19:01:39;4.10;;;0.80;;
77984;SDS011;67177;47.240;-1.546;2023-05-10T19:04:05;3.03;;;0.80;;
77984;SDS011;67177;47.240;-1.546;2023-05-10T19:06:32;3.10;;;0.70;;
77984;SDS011;67177;47.240;-1.546;2023-05-10T19:08:58;3.50;;;0.90;;
77984;SDS011;67177;47.240;-1.546;2023-05-10T19:11:24;3.25;;;0.82;;
77984;SDS011;67177;47.240;-1.546;2023-05-10T19:13:49;4.25;;;0.90;;
77984;SDS011;67177;47.240;-1.546;2023-05-10T19:16:15;3.77;;;1.17;;
77984;SDS011;67177;47.240;-1.546;2023-05-10T19:18:44;4.13;;;0.85;;
77984;SDS011;67177;47.240;-1.546;2023-05-10T19:21:10;3.97;;;0.85;;
77984;SDS011;67177;47.240;-1.546;2023-05-10T19:23:36;4.67;;;0.80;;
77984;SDS011;67177;47.240;-1.546;2023-05-10T19:26:04;4.38;;;1.10;;
77984;SDS011;67177;47.240;-1.546;2023-05-10T19:28:30;3.13;;;0.80;;
77984;SDS011;67177;47.240;-1.546;2023-05-10T19:30:55;4.07;;;0.93;;
77984;SDS011;67177;47.240;-1.546;2023-05-10T19:33:21;5.10;;;1.02;;
77984;SDS011;67177;47.240;-1.546;2023-05-10T19:35:51;3.83;;;1.00;;
77984;SDS011;67177;47.240;-1.546;2023-05-10T19:38:20;4.53;;;1.10;;
77984;SDS011;67177;47.240;-1.546;2023-05-10T19:40:46;4.77;;;0.90;;
77984;SDS011;67177;47.240;-1.546;2023-05-10T19:43:21;5.80;;;0.98;;
77984;SDS011;67177;47.240;-1.546;2023-05-10T19:45:47;3.67;;;0.90;;
77984;SDS011;67177;47.240;-1.546;2023-05-10T19:48:13;3.73;;;0.77;;
77984;SDS011;67177;47.240;-1.546;2023-05-10T19:50:39;3.60;;;0.90;;
77984;SDS011;67177;47.240;-1.546;2023-05-10T19:53:04;5.20;;;1.13;;
77984;SDS011;67177;47.240;-1.546;2023-05-10T19:55:30;4.15;;;0.90;;
77984;SDS011;67177;47.240;-1.546;2023-05-10T19:57:56;3.10;;;0.70;;
77984;SDS011;67177;47.240;-1.546;2023-05-10T20:00:24;3.28;;;0.80;;
77984;SDS011;67177;47.240;-1.546;2023-05-10T20:02:51;4.28;;;0.93;;
77984;SDS011;67177;47.240;-1.546;2023-05-10T20:05:17;3.72;;;0.80;;
77984;SDS011;67177;47.240;-1.546;2023-05-10T20:07:43;3.00;;;0.77;;
77984;SDS011;67177;47.240;-1.546;2023-05-10T20:10:09;3.20;;;0.90;;
77984;SDS011;67177;47.240;-1.546;2023-05-10T20:12:35;3.08;;;0.80;;
77984;SDS011;67177;47.240;-1.546;2023-05-10T20:15:01;3.20;;;0.70;;
77984;SDS011;67177;47.240;-1.546;2023-05-10T20:17:27;3.00;;;0.98;;
77984;SDS011;67177;47.240;-1.546;2023-05-10T20:19:53;2.85;;;0.70;;
77984;SDS011;67177;47.240;-1.546;2023-05-10T20:22:19;4.10;;;0.70;;
77984;SDS011;67177;47.240;-1.546;2023-05-10T20:24:44;3.53;;;1.00;;
77984;SDS011;67177;47.240;-1.546;2023-05-10T20:27:11;3.67;;;0.70;;
77984;SDS011;67177;47.240;-1.546;2023-05-10T20:29:37;3.17;;;0.85;;
77984;SDS011;67177;47.240;-1.546;2023-05-10T20:32:02;2.43;;;0.60;;
77984;SDS011;67177;47.240;-1.546;2023-05-10T20:34:28;2.63;;;0.70;;
77984;SDS011;67177;47.240;-1.546;2023-05-10T20:36:55;3.47;;;0.90;;
77984;SDS011;67177;47.240;-1.546;2023-05-10T20:39:20;3.80;;;0.90;;
77984;SDS011;67177;47.240;-1.546;2023-05-10T20:41:46;2.78;;;0.77;;
77984;SDS011;67177;47.240;-1.546;2023-05-10T20:44:12;3.80;;;0.85;;
77984;SDS011;67177;47.240;-1.546;2023-05-10T20:46:38;3.03;;;0.70;;
77984;SDS011;67177;47.240;-1.546;2023-05-10T20:49:03;4.38;;;0.80;;
77984;SDS011;67177;47.240;-1.546;2023-05-10T20:51:29;4.63;;;0.77;;
77984;SDS011;67177;47.240;-1.546;2023-05-10T20:53:57;3.75;;;0.90;;
77984;SDS011;67177;47.240;-1.546;2023-05-10T20:56:25;4.65;;;1.08;;
77984;SDS011;67177;47.240;-1.546;2023-05-10T20:58:51;4.80;;;1.00;;
77984;SDS011;67177;47.240;-1.546;2023-05-10T21:01:17;3.05;;;0.82;;
77984;SDS011;67177;47.240;-1.546;2023-05-10T21:03:42;3.93;;;0.80;;
77984;SDS011;67177;47.240;-1.546;2023-05-10T21:06:08;3.63;;;0.77;;
77984;SDS011;67177;47.240;-1.546;2023-05-10T21:08:33;3.30;;;0.70;;
77984;SDS011;67177;47.240;-1.546;2023-05-10T21:11:01;3.17;;;0.80;;
77984;SDS011;67177;47.240;-1.546;2023-05-10T21:13:28;3.78;;;0.88;;
77984;SDS011;67177;47.240;-1.546;2023-05-10T21:15:54;4.53;;;0.90;;
77984;SDS011;67177;47.240;-1.546;2023-05-10T21:18:20;4.20;;;0.80;;
77984;SDS011;67177;47.240;-1.546;2023-05-10T21:20:46;3.83;;;1.00;;
77984;SDS011;67177;47.240;-1.546;2023-05-10T21:23:11;3.63;;;0.70;;
77984;SDS011;67177;47.240;-1.546;2023-05-10T21:25:37;3.50;;;0.70;;
77984;SDS011;67177;47.240;-1.546;2023-05-10T21:28:03;4.00;;;0.90;;